sensor_id;sensor_type;location;lat;lon;timestamp;temperature;humidity
67603;DHT22;54417;47.454;18.918;2023-04-03T00:00:33;5.65;70.95
67603;DHT22;54417;47.454;18.918;2023-04-03T00:05:59;5.60;70.77
67603;DHT22;54417;47.454;18.918;2023-04-03T00:11:23;5.58;71.25
67603;DHT22;54417;47.454;18.918;2023-04-03T00:16:47;5.58;70.92
67603;DHT22;54417;47.454;18.918;2023-04-03T00:22:12;5.56;71.09
67603;DHT22;54417;47.454;18.918;2023-04-03T00:27:36;5.60;71.28
67603;DHT22;54417;47.454;18.918;2023-04-03T00:33:01;5.63;70.67
67603;DHT22;54417;47.454;18.918;2023-04-03T00:38:27;5.62;71.04
67603;DHT22;54417;47.454;18.918;2023-04-03T00:43:50;5.55;70.99
67603;DHT22;54417;47.454;18.918;2023-04-03T00:49:14;5.49;71.20
67603;DHT22;54417;47.454;18.918;2023-04-03T00:54:41;5.46;70.87
67603;DHT22;54417;47.454;18.918;2023-04-03T01:00:07;5.35;71.02
67603;DHT22;54417;47.454;18.918;2023-04-03T01:05:32;5.32;71.07
67603;DHT22;54417;47.454;18.918;2023-04-03T01:10:57;5.25;71.29
67603;DHT22;54417;47.454;18.918;2023-04-03T01:16:22;5.19;71.30
67603;DHT22;54417;47.454;18.918;2023-04-03T01:22:10;5.17;71.57
67603;DHT22;54417;47.454;18.918;2023-04-03T01:27:38;5.14;71.90
67603;DHT22;54417;47.454;18.918;2023-04-03T01:33:03;5.09;71.80
67603;DHT22;54417;47.454;18.918;2023-04-03T01:38:28;5.00;71.85
67603;DHT22;54417;47.454;18.918;2023-04-03T01:43:52;4.94;72.14
67603;DHT22;54417;47.454;18.918;2023-04-03T01:49:17;4.91;71.78
67603;DHT22;54417;47.454;18.918;2023-04-03T01:54:41;4.85;71.73
67603;DHT22;54417;47.454;18.918;2023-04-03T02:00:07;4.85;72.07
67603;DHT22;54417;47.454;18.918;2023-04-03T02:05:36;4.87;71.91
67603;DHT22;54417;47.454;18.918;2023-04-03T02:11:00;4.80;72.34
67603;DHT22;54417;47.454;18.918;2023-04-03T02:16:24;4.73;72.42
67603;DHT22;54417;47.454;18.918;2023-04-03T02:21:49;4.67;72.27
67603;DHT22;54417;47.454;18.918;2023-04-03T02:27:13;4.61;72.35
67603;DHT22;54417;47.454;18.918;2023-04-03T02:32:37;4.63;73.37
67603;DHT22;54417;47.454;18.918;2023-04-03T02:38:02;4.53;73.57
67603;DHT22;54417;47.454;18.918;2023-04-03T02:43:28;4.50;72.91
67603;DHT22;54417;47.454;18.918;2023-04-03T02:48:52;4.43;73.60
67603;DHT22;54417;47.454;18.918;2023-04-03T02:54:17;4.33;74.27
67603;DHT22;54417;47.454;18.918;2023-04-03T02:59:46;4.15;75.08
67603;DHT22;54417;47.454;18.918;2023-04-03T03:05:10;4.02;75.62
67603;DHT22;54417;47.454;18.918;2023-04-03T03:10:35;3.95;75.88
67603;DHT22;54417;47.454;18.918;2023-04-03T03:16:00;3.91;75.39
67603;DHT22;54417;47.454;18.918;2023-04-03T03:21:24;3.97;75.66
67603;DHT22;54417;47.454;18.918;2023-04-03T03:26:49;4.03;75.99
67603;DHT22;54417;47.454;18.918;2023-04-03T03:32:13;3.99;75.75
67603;DHT22;54417;47.454;18.918;2023-04-03T03:37:37;3.90;75.94
67603;DHT22;54417;47.454;18.918;2023-04-03T03:43:03;3.75;76.13
67603;DHT22;54417;47.454;18.918;2023-04-03T03:48:27;3.69;76.52
67603;DHT22;54417;47.454;18.918;2023-04-03T03:53:51;3.61;76.59
67603;DHT22;54417;47.454;18.918;2023-04-03T03:59:17;3.59;76.66
67603;DHT22;54417;47.454;18.918;2023-04-03T04:04:41;3.52;76.50
67603;DHT22;54417;47.454;18.918;2023-04-03T04:10:06;3.43;77.06
67603;DHT22;54417;47.454;18.918;2023-04-03T04:15:32;3.30;77.21
67603;DHT22;54417;47.454;18.918;2023-04-03T04:20:57;3.16;78.32
67603;DHT22;54417;47.454;18.918;2023-04-03T04:26:21;3.12;77.92
67603;DHT22;54417;47.454;18.918;2023-04-03T04:31:46;3.06;78.22
67603;DHT22;54417;47.454;18.918;2023-04-03T04:37:11;2.99;78.55
67603;DHT22;54417;47.454;18.918;2023-04-03T04:42:35;3.08;78.14
67603;DHT22;54417;47.454;18.918;2023-04-03T04:48:00;3.01;78.31
67603;DHT22;54417;47.454;18.918;2023-04-03T04:53:24;3.08;78.01
67603;DHT22;54417;47.454;18.918;2023-04-03T04:58:48;3.05;78.47
67603;DHT22;54417;47.454;18.918;2023-04-03T05:04:16;3.18;78.00
67603;DHT22;54417;47.454;18.918;2023-04-03T05:09:44;3.33;77.61
67603;DHT22;54417;47.454;18.918;2023-04-03T05:15:10;3.49;77.11
67603;DHT22;54417;47.454;18.918;2023-04-03T05:20:35;3.56;77.00
67603;DHT22;54417;47.454;18.918;2023-04-03T05:26:00;3.56;77.03
67603;DHT22;54417;47.454;18.918;2023-04-03T05:31:25;3.61;76.66
67603;DHT22;54417;47.454;18.918;2023-04-03T05:36:54;3.85;75.85
67603;DHT22;54417;47.454;18.918;2023-04-03T05:42:19;3.73;75.83
67603;DHT22;54417;47.454;18.918;2023-04-03T05:47:43;3.49;76.50
67603;DHT22;54417;47.454;18.918;2023-04-03T05:53:14;3.40;76.65
67603;DHT22;54417;47.454;18.918;2023-04-03T05:58:39;3.43;76.80
67603;DHT22;54417;47.454;18.918;2023-04-03T06:04:03;3.47;76.92
67603;DHT22;54417;47.454;18.918;2023-04-03T06:09:29;4.03;75.35
67603;DHT22;54417;47.454;18.918;2023-04-03T06:14:54;4.63;73.37
67603;DHT22;54417;47.454;18.918;2023-04-03T06:20:18;5.11;71.19
67603;DHT22;54417;47.454;18.918;2023-04-03T06:25:43;5.45;70.23
67603;DHT22;54417;47.454;18.918;2023-04-03T06:31:07;5.89;69.13
67603;DHT22;54417;47.454;18.918;2023-04-03T06:36:31;5.97;68.00
67603;DHT22;54417;47.454;18.918;2023-04-03T06:41:56;6.20;67.13
67603;DHT22;54417;47.454;18.918;2023-04-03T06:47:31;6.55;66.54
67603;DHT22;54417;47.454;18.918;2023-04-03T06:52:55;6.79;65.66
67603;DHT22;54417;47.454;18.918;2023-04-03T06:58:20;6.55;66.17
67603;DHT22;54417;47.454;18.918;2023-04-03T07:03:44;6.86;65.71
67603;DHT22;54417;47.454;18.918;2023-04-03T07:09:10;7.10;65.34
67603;DHT22;54417;47.454;18.918;2023-04-03T07:14:36;7.20;64.29
67603;DHT22;54417;47.454;18.918;2023-04-03T07:20:00;7.27;63.16
67603;DHT22;54417;47.454;18.918;2023-04-03T07:25:26;7.71;61.49
67603;DHT22;54417;47.454;18.918;2023-04-03T07:30:53;8.20;60.13
67603;DHT22;54417;47.454;18.918;2023-04-03T07:36:20;8.09;59.11
67603;DHT22;54417;47.454;18.918;2023-04-03T07:41:44;8.02;58.93
67603;DHT22;54417;47.454;18.918;2023-04-03T07:47:09;7.97;59.09
67603;DHT22;54417;47.454;18.918;2023-04-03T07:52:33;7.83;59.62
67603;DHT22;54417;47.454;18.918;2023-04-03T07:57:57;8.03;59.10
67603;DHT22;54417;47.454;18.918;2023-04-03T08:03:22;8.52;57.39
67603;DHT22;54417;47.454;18.918;2023-04-03T08:08:46;9.00;58.23
67603;DHT22;54417;47.454;18.918;2023-04-03T08:14:10;8.88;56.50
67603;DHT22;54417;47.454;18.918;2023-04-03T08:19:40;9.06;55.75
67603;DHT22;54417;47.454;18.918;2023-04-03T08:25:05;9.05;55.13
67603;DHT22;54417;47.454;18.918;2023-04-03T08:30:29;9.19;54.80
67603;DHT22;54417;47.454;18.918;2023-04-03T08:35:54;9.64;54.22
67603;DHT22;54417;47.454;18.918;2023-04-03T08:41:27;9.89;53.11
67603;DHT22;54417;47.454;18.918;2023-04-03T08:47:02;10.01;52.25
67603;DHT22;54417;47.454;18.918;2023-04-03T08:52:33;10.50;52.55
67603;DHT22;54417;47.454;18.918;2023-04-03T08:58:01;10.53;51.37
67603;DHT22;54417;47.454;18.918;2023-04-03T09:03:29;10.59;50.59
67603;DHT22;54417;47.454;18.918;2023-04-03T09:09:11;10.94;49.71
67603;DHT22;54417;47.454;18.918;2023-04-03T09:14:38;10.97;48.91
67603;DHT22;54417;47.454;18.918;2023-04-03T09:20:12;10.97;49.29
67603;DHT22;54417;47.454;18.918;2023-04-03T09:25:44;10.59;48.40
67603;DHT22;54417;47.454;18.918;2023-04-03T09:31:18;10.39;49.22
67603;DHT22;54417;47.454;18.918;2023-04-03T09:36:44;10.15;49.29
67603;DHT22;54417;47.454;18.918;2023-04-03T09:42:18;10.50;47.72
67603;DHT22;54417;47.454;18.918;2023-04-03T09:47:42;11.35;47.41
67603;DHT22;54417;47.454;18.918;2023-04-03T09:53:24;11.84;45.36
67603;DHT22;54417;47.454;18.918;2023-04-03T09:58:52;11.93;45.54
67603;DHT22;54417;47.454;18.918;2023-04-03T10:04:17;11.90;45.21
67603;DHT22;54417;47.454;18.918;2023-04-03T10:09:55;12.05;43.94
67603;DHT22;54417;47.454;18.918;2023-04-03T10:15:20;11.33;46.46
67603;DHT22;54417;47.454;18.918;2023-04-03T10:20:47;10.80;45.84
67603;DHT22;54417;47.454;18.918;2023-04-03T10:26:17;10.43;48.31
67603;DHT22;54417;47.454;18.918;2023-04-03T10:31:53;10.64;46.96
67603;DHT22;54417;47.454;18.918;2023-04-03T10:37:24;10.91;48.75
67603;DHT22;54417;47.454;18.918;2023-04-03T10:42:52;10.57;47.63
67603;DHT22;54417;47.454;18.918;2023-04-03T10:48:28;10.56;49.45
67603;DHT22;54417;47.454;18.918;2023-04-03T10:54:01;10.10;49.80
67603;DHT22;54417;47.454;18.918;2023-04-03T10:59:32;9.71;49.83
67603;DHT22;54417;47.454;18.918;2023-04-03T11:05:02;9.51;49.96
67603;DHT22;54417;47.454;18.918;2023-04-03T11:10:36;9.62;50.11
67603;DHT22;54417;47.454;18.918;2023-04-03T11:16:02;9.60;50.14
67603;DHT22;54417;47.454;18.918;2023-04-03T11:21:33;9.61;49.94
67603;DHT22;54417;47.454;18.918;2023-04-03T11:27:00;9.65;50.22
67603;DHT22;54417;47.454;18.918;2023-04-03T11:38:17;9.67;48.91
67603;DHT22;54417;47.454;18.918;2023-04-03T11:43:56;9.68;48.91
67603;DHT22;54417;47.454;18.918;2023-04-03T11:49:52;9.87;47.99
67603;DHT22;54417;47.454;18.918;2023-04-03T11:55:43;9.92;48.51
67603;DHT22;54417;47.454;18.918;2023-04-03T12:01:09;9.94;48.94
67603;DHT22;54417;47.454;18.918;2023-04-03T12:07:11;9.99;49.14
67603;DHT22;54417;47.454;18.918;2023-04-03T12:12:39;9.79;47.99
67603;DHT22;54417;47.454;18.918;2023-04-03T12:18:31;9.88;49.01
67603;DHT22;54417;47.454;18.918;2023-04-03T12:23:59;9.89;48.70
67603;DHT22;54417;47.454;18.918;2023-04-03T12:29:27;9.71;49.06
67603;DHT22;54417;47.454;18.918;2023-04-03T12:35:05;9.75;49.50
67603;DHT22;54417;47.454;18.918;2023-04-03T12:40:35;9.82;49.38
67603;DHT22;54417;47.454;18.918;2023-04-03T12:46:09;9.94;50.35
67603;DHT22;54417;47.454;18.918;2023-04-03T12:51:37;9.99;49.30
67603;DHT22;54417;47.454;18.918;2023-04-03T12:57:10;10.25;47.58
67603;DHT22;54417;47.454;18.918;2023-04-03T13:02:36;10.42;46.83
67603;DHT22;54417;47.454;18.918;2023-04-03T13:08:01;10.56;47.54
67603;DHT22;54417;47.454;18.918;2023-04-03T13:13:27;10.47;47.41
67603;DHT22;54417;47.454;18.918;2023-04-03T13:18:53;10.61;47.51
67603;DHT22;54417;47.454;18.918;2023-04-03T13:24:17;10.46;46.85
67603;DHT22;54417;47.454;18.918;2023-04-03T13:29:42;10.56;47.84
67603;DHT22;54417;47.454;18.918;2023-04-03T13:35:30;10.49;47.96
67603;DHT22;54417;47.454;18.918;2023-04-03T13:40:56;10.23;47.14
67603;DHT22;54417;47.454;18.918;2023-04-03T13:46:25;10.13;46.70
67603;DHT22;54417;47.454;18.918;2023-04-03T13:51:51;10.12;47.55
67603;DHT22;54417;47.454;18.918;2023-04-03T13:57:28;10.09;48.12
67603;DHT22;54417;47.454;18.918;2023-04-03T14:02:54;10.33;47.94
67603;DHT22;54417;47.454;18.918;2023-04-03T14:08:20;10.49;46.98
67603;DHT22;54417;47.454;18.918;2023-04-03T14:14:05;10.29;48.21
67603;DHT22;54417;47.454;18.918;2023-04-03T14:19:32;9.79;48.92
67603;DHT22;54417;47.454;18.918;2023-04-03T14:24:58;9.47;49.59
67603;DHT22;54417;47.454;18.918;2023-04-03T14:30:24;9.33;50.05
67603;DHT22;54417;47.454;18.918;2023-04-03T14:35:49;9.16;50.08
67603;DHT22;54417;47.454;18.918;2023-04-03T14:41:17;9.18;50.45
67603;DHT22;54417;47.454;18.918;2023-04-03T14:46:42;9.16;49.60
67603;DHT22;54417;47.454;18.918;2023-04-03T14:52:20;9.10;50.13
67603;DHT22;54417;47.454;18.918;2023-04-03T14:57:46;8.92;49.37
67603;DHT22;54417;47.454;18.918;2023-04-03T15:03:13;8.75;48.66
67603;DHT22;54417;47.454;18.918;2023-04-03T15:08:38;8.62;49.14
67603;DHT22;54417;47.454;18.918;2023-04-03T15:14:04;8.55;49.08
67603;DHT22;54417;47.454;18.918;2023-04-03T15:19:28;8.54;50.19
67603;DHT22;54417;47.454;18.918;2023-04-03T15:24:52;8.57;49.98
67603;DHT22;54417;47.454;18.918;2023-04-03T15:30:18;8.52;48.81
67603;DHT22;54417;47.454;18.918;2023-04-03T15:35:43;8.42;48.57
67603;DHT22;54417;47.454;18.918;2023-04-03T15:41:07;8.52;48.97
67603;DHT22;54417;47.454;18.918;2023-04-03T15:46:33;8.41;48.84
67603;DHT22;54417;47.454;18.918;2023-04-03T15:51:57;8.31;49.56
67603;DHT22;54417;47.454;18.918;2023-04-03T15:57:21;7.97;48.83
67603;DHT22;54417;47.454;18.918;2023-04-03T16:02:53;7.85;49.24
67603;DHT22;54417;47.454;18.918;2023-04-03T16:08:20;7.73;49.61
67603;DHT22;54417;47.454;18.918;2023-04-03T16:13:43;7.54;49.30
67603;DHT22;54417;47.454;18.918;2023-04-03T16:19:09;7.41;49.45
67603;DHT22;54417;47.454;18.918;2023-04-03T16:24:33;7.35;49.95
67603;DHT22;54417;47.454;18.918;2023-04-03T16:29:58;7.31;49.40
67603;DHT22;54417;47.454;18.918;2023-04-03T16:35:23;7.28;50.23
67603;DHT22;54417;47.454;18.918;2023-04-03T16:40:47;7.27;49.09
67603;DHT22;54417;47.454;18.918;2023-04-03T16:46:12;7.24;49.12
67603;DHT22;54417;47.454;18.918;2023-04-03T16:51:37;7.20;47.99
67603;DHT22;54417;47.454;18.918;2023-04-03T16:57:01;7.17;48.10
67603;DHT22;54417;47.454;18.918;2023-04-03T17:02:25;7.18;48.59
67603;DHT22;54417;47.454;18.918;2023-04-03T17:07:50;7.13;49.12
67603;DHT22;54417;47.454;18.918;2023-04-03T17:13:14;7.18;50.16
67603;DHT22;54417;47.454;18.918;2023-04-03T17:18:40;7.23;51.93
67603;DHT22;54417;47.454;18.918;2023-04-03T17:24:06;7.20;49.78
67603;DHT22;54417;47.454;18.918;2023-04-03T17:29:31;7.18;49.56
67603;DHT22;54417;47.454;18.918;2023-04-03T17:34:54;7.06;49.36
67603;DHT22;54417;47.454;18.918;2023-04-03T17:40:20;7.04;49.62
67603;DHT22;54417;47.454;18.918;2023-04-03T17:45:43;6.97;49.96
67603;DHT22;54417;47.454;18.918;2023-04-03T17:51:09;6.94;49.76
67603;DHT22;54417;47.454;18.918;2023-04-03T17:56:34;6.80;50.39
67603;DHT22;54417;47.454;18.918;2023-04-03T18:01:58;6.69;50.17
67603;DHT22;54417;47.454;18.918;2023-04-03T18:07:23;6.64;50.56
67603;DHT22;54417;47.454;18.918;2023-04-03T18:12:49;6.64;51.08
67603;DHT22;54417;47.454;18.918;2023-04-03T18:18:14;6.50;50.97
67603;DHT22;54417;47.454;18.918;2023-04-03T18:23:40;6.44;50.92
67603;DHT22;54417;47.454;18.918;2023-04-03T18:29:08;6.42;50.95
67603;DHT22;54417;47.454;18.918;2023-04-03T18:34:33;6.32;51.03
67603;DHT22;54417;47.454;18.918;2023-04-03T18:39:57;6.27;49.86
67603;DHT22;54417;47.454;18.918;2023-04-03T18:45:25;6.14;49.49
67603;DHT22;54417;47.454;18.918;2023-04-03T18:50:50;6.11;49.86
67603;DHT22;54417;47.454;18.918;2023-04-03T18:56:13;6.01;50.65
67603;DHT22;54417;47.454;18.918;2023-04-03T19:01:39;5.98;51.03
67603;DHT22;54417;47.454;18.918;2023-04-03T19:07:03;5.89;51.30
67603;DHT22;54417;47.454;18.918;2023-04-03T19:12:28;5.77;50.79
67603;DHT22;54417;47.454;18.918;2023-04-03T19:17:53;5.65;50.00
67603;DHT22;54417;47.454;18.918;2023-04-03T19:23:17;5.66;49.90
67603;DHT22;54417;47.454;18.918;2023-04-03T19:28:41;5.48;47.42
67603;DHT22;54417;47.454;18.918;2023-04-03T19:34:07;5.38;47.34
67603;DHT22;54417;47.454;18.918;2023-04-03T19:39:31;5.31;47.54
67603;DHT22;54417;47.454;18.918;2023-04-03T19:44:57;5.19;47.57
67603;DHT22;54417;47.454;18.918;2023-04-03T19:50:22;5.07;48.43
67603;DHT22;54417;47.454;18.918;2023-04-03T19:55:46;4.91;47.73
67603;DHT22;54417;47.454;18.918;2023-04-03T20:01:10;4.90;47.21
67603;DHT22;54417;47.454;18.918;2023-04-03T20:06:35;4.84;47.78
67603;DHT22;54417;47.454;18.918;2023-04-03T20:11:59;4.74;48.15
67603;DHT22;54417;47.454;18.918;2023-04-03T20:17:23;4.63;47.91
67603;DHT22;54417;47.454;18.918;2023-04-03T20:22:49;4.53;48.31
67603;DHT22;54417;47.454;18.918;2023-04-03T20:28:15;4.48;48.08
67603;DHT22;54417;47.454;18.918;2023-04-03T20:33:40;4.35;48.83
67603;DHT22;54417;47.454;18.918;2023-04-03T20:39:05;4.31;47.93
67603;DHT22;54417;47.454;18.918;2023-04-03T20:44:30;4.28;46.42
67603;DHT22;54417;47.454;18.918;2023-04-03T20:49:54;4.21;47.18
67603;DHT22;54417;47.454;18.918;2023-04-03T20:55:19;4.05;46.35
67603;DHT22;54417;47.454;18.918;2023-04-03T21:00:43;4.01;46.44
67603;DHT22;54417;47.454;18.918;2023-04-03T21:23:56;3.82;47.30
67603;DHT22;54417;47.454;18.918;2023-04-03T21:29:20;3.75;47.09
67603;DHT22;54417;47.454;18.918;2023-04-03T21:34:44;3.73;47.87
67603;DHT22;54417;47.454;18.918;2023-04-03T21:40:08;3.60;48.49
67603;DHT22;54417;47.454;18.918;2023-04-03T21:45:32;3.54;48.15
67603;DHT22;54417;47.454;18.918;2023-04-03T21:51:04;3.53;47.76
67603;DHT22;54417;47.454;18.918;2023-04-03T21:56:28;3.46;48.14
67603;DHT22;54417;47.454;18.918;2023-04-03T22:01:52;3.43;47.93
67603;DHT22;54417;47.454;18.918;2023-04-03T22:07:18;3.46;48.11
67603;DHT22;54417;47.454;18.918;2023-04-03T22:12:41;3.39;48.47
67603;DHT22;54417;47.454;18.918;2023-04-03T22:18:05;3.30;48.28
67603;DHT22;54417;47.454;18.918;2023-04-03T22:23:31;3.23;48.69
67603;DHT22;54417;47.454;18.918;2023-04-03T22:28:54;3.13;48.73
67603;DHT22;54417;47.454;18.918;2023-04-03T22:34:18;3.15;49.12
67603;DHT22;54417;47.454;18.918;2023-04-03T22:39:44;3.09;49.06
67603;DHT22;54417;47.454;18.918;2023-04-03T22:45:09;3.08;49.17
67603;DHT22;54417;47.454;18.918;2023-04-03T22:50:33;2.92;49.28
67603;DHT22;54417;47.454;18.918;2023-04-03T22:56:01;2.88;49.45
67603;DHT22;54417;47.454;18.918;2023-04-03T23:01:26;2.84;49.69
67603;DHT22;54417;47.454;18.918;2023-04-03T23:06:50;2.61;50.17
67603;DHT22;54417;47.454;18.918;2023-04-03T23:12:15;2.46;50.35
67603;DHT22;54417;47.454;18.918;2023-04-03T23:17:39;2.46;51.04
67603;DHT22;54417;47.454;18.918;2023-04-03T23:23:03;2.26;51.87
67603;DHT22;54417;47.454;18.918;2023-04-03T23:28:29;2.15;52.05
67603;DHT22;54417;47.454;18.918;2023-04-03T23:33:53;2.06;52.65
67603;DHT22;54417;47.454;18.918;2023-04-03T23:39:17;1.77;53.63
67603;DHT22;54417;47.454;18.918;2023-04-03T23:44:42;1.58;54.23
67603;DHT22;54417;47.454;18.918;2023-04-03T23:50:07;1.55;53.60
67603;DHT22;54417;47.454;18.918;2023-04-03T23:55:31;1.40;55.21
